Time;durP1;ratioP1;P1;durP2;ratioP2;P2;SDS_P1;SDS_P2;PMS_P1;PMS_P2;Temp;Humidity;BMP_temperature;BMP_pressure;BME280_temperature;BME280_humidity;BME280_pressure;Samples;Min_cycle;Max_cycle;Signal;HPM_P1;HPM_P2
2022/12/23 00:00:53;;;;;;;3.60;2.58;;;;;;;13.69;100.00;95559.25;5054914;28;20088;-43
2022/12/23 00:03:23;;;;;;;4.05;2.50;;;;;;;13.39;100.00;95556.66;5055234;28;20083;-41
2022/12/23 00:05:52;;;;;;;4.03;2.70;;;;;;;13.34;100.00;95544.97;5053040;28;20083;-41
2022/12/23 00:08:21;;;;;;;3.88;2.70;;;;;;;13.56;100.00;95536.09;5051437;28;20091;-47
2022/12/23 00:10:50;;;;;;;5.78;2.92;;;;;;;13.32;100.00;95550.47;5054437;28;20532;-41
2022/12/23 00:16:19;;;;;;;3.70;2.78;;;;;;;13.42;100.00;95539.56;5011785;28;20088;-53
2022/12/23 00:18:48;;;;;;;4.18;2.50;;;;;;;13.77;100.00;95540.63;5014195;28;20092;-44
2022/12/23 00:21:17;;;;;;;4.50;2.50;;;;;;;13.63;100.00;95537.00;5031903;28;20624;-41
2022/12/23 00:23:47;;;;;;;6.03;2.80;;;;;;;13.51;100.00;95527.88;5055012;28;20533;-44
2022/12/23 00:26:17;;;;;;;4.68;2.65;;;;;;;13.84;100.00;95528.25;5053934;28;20477;-51
2022/12/23 00:28:45;;;;;;;3.75;2.72;;;;;;;13.76;100.00;95515.09;5054124;28;20083;-44
2022/12/23 00:31:14;;;;;;;5.20;2.80;;;;;;;14.21;100.00;95513.94;5055952;28;20084;-45
2022/12/23 00:33:44;;;;;;;6.07;3.03;;;;;;;13.74;100.00;95504.69;5057959;28;20087;-48
2022/12/23 00:36:17;;;;;;;3.92;2.65;;;;;;;14.17;100.00;95509.19;5054341;28;20648;-43
2022/12/23 00:44:17;;;;;;;4.32;2.95;;;;;;;14.02;100.00;95494.19;5054093;28;20551;-41
2022/12/23 00:46:45;;;;;;;2.97;2.67;;;;;;;13.91;100.00;95484.09;5055195;28;20103;-41
2022/12/23 00:52:03;;;;;;;6.13;3.08;;;;;;;13.82;100.00;95473.78;5051621;28;20080;-43
2022/12/23 00:54:31;;;;;;;4.13;2.60;;;;;;;13.99;100.00;95480.47;5053439;28;20084;-43
2022/12/23 00:57:00;;;;;;;5.03;2.80;;;;;;;13.80;100.00;95467.84;5056983;28;20077;-43
2022/12/23 00:59:29;;;;;;;4.75;2.83;;;;;;;13.83;100.00;95475.44;5052665;28;20088;-49
2022/12/23 01:07:30;;;;;;;7.43;2.80;;;;;;;13.77;100.00;95464.59;5051263;28;20441;-46
2022/12/23 01:09:58;;;;;;;4.55;2.63;;;;;;;13.90;100.00;95465.69;5052472;28;20495;-41
2022/12/23 01:12:27;;;;;;;4.03;3.05;;;;;;;14.00;100.00;95445.84;5053869;28;20083;-44
2022/12/23 01:14:55;;;;;;;4.97;2.90;;;;;;;13.97;100.00;95461.28;5057329;28;20571;-48
2022/12/23 01:17:23;;;;;;;6.47;3.08;;;;;;;14.04;100.00;95471.94;5052081;28;20083;-52
2022/12/23 01:19:52;;;;;;;7.40;2.70;;;;;;;13.87;100.00;95448.38;5053274;28;20084;-43
2022/12/23 01:22:20;;;;;;;3.13;2.60;;;;;;;13.51;100.00;95438.63;5055849;28;20075;-51
2022/12/23 01:24:50;;;;;;;5.30;3.15;;;;;;;12.90;100.00;95471.66;5053503;28;20081;-41
2022/12/23 01:27:18;;;;;;;4.22;2.70;;;;;;;13.20;100.00;95477.75;5057043;28;20083;-47
2022/12/23 01:29:47;;;;;;;3.67;2.70;;;;;;;13.68;100.00;95455.09;5054415;28;20084;-41
2022/12/23 01:32:15;;;;;;;3.75;2.70;;;;;;;14.06;100.00;95444.25;5053266;28;20119;-42
2022/12/23 01:34:43;;;;;;;2.97;2.60;;;;;;;13.67;100.00;95445.53;5052200;28;20103;-44
2022/12/23 01:37:11;;;;;;;4.45;2.60;;;;;;;13.75;100.00;95436.63;5051883;28;20083;-44
2022/12/23 01:39:40;;;;;;;3.70;3.22;;;;;;;13.67;100.00;95442.06;5052940;28;20087;-41
2022/12/23 01:45:00;;;;;;;6.18;2.75;;;;;;;13.43;100.00;95430.00;5053381;28;20080;-47
2022/12/23 01:47:33;;;;;;;2.90;2.70;;;;;;;13.45;100.00;95443.84;5054043;28;20068;-41
2022/12/23 01:50:06;;;;;;;5.07;2.88;;;;;;;13.25;100.00;95446.31;5056691;28;20080;-45
2022/12/23 01:52:39;;;;;;;3.17;2.75;;;;;;;13.34;100.00;95431.13;5053609;28;20078;-47
2022/12/23 01:55:08;;;;;;;4.57;2.67;;;;;;;13.20;100.00;95422.97;5053573;28;20337;-42
2022/12/23 01:57:39;;;;;;;3.50;2.67;;;;;;;12.96;100.00;95437.34;5052269;28;20120;-41
2022/12/23 02:05:42;;;;;;;3.95;2.78;;;;;;;12.98;100.00;95445.94;5053103;28;20072;-43
2022/12/23 02:11:20;;;;;;;3.40;2.70;;;;;;;13.27;100.00;95438.97;5052958;28;20068;-41
2022/12/23 02:16:41;;;;;;;3.85;2.75;;;;;;;12.85;100.00;95442.31;5052794;28;20083;-44
2022/12/23 02:19:12;;;;;;;5.45;2.75;;;;;;;13.33;100.00;95461.25;5050446;28;20094;-43
2022/12/23 02:21:48;;;;;;;3.95;2.70;;;;;;;13.48;100.00;95454.91;5051633;28;20079;-45
2022/12/23 02:24:45;;;;;;;3.67;2.78;;;;;;;13.24;100.00;95460.53;5050612;28;20087;-40
2022/12/23 02:27:18;;;;;;;6.10;2.78;;;;;;;13.34;100.00;95458.41;5046988;28;20052;-45
2022/12/23 02:30:20;;;;;;;5.00;2.78;;;;;;;13.02;100.00;95467.56;5052085;28;20483;-41
2022/12/23 02:32:58;;;;;;;3.88;2.70;;;;;;;13.29;100.00;95460.81;5054148;28;20064;-41
2022/12/23 02:35:30;;;;;;;4.30;2.70;;;;;;;13.15;100.00;95467.75;5052199;28;20079;-50
2022/12/23 02:38:06;;;;;;;4.05;2.83;;;;;;;13.21;100.00;95459.06;5050802;28;20075;-40
2022/12/23 02:40:38;;;;;;;3.97;2.80;;;;;;;13.46;100.00;95461.41;5056603;28;20067;-41
2022/12/23 02:43:12;;;;;;;2.90;2.58;;;;;;;13.46;100.00;95459.56;5053744;28;20072;-44
2022/12/23 02:45:45;;;;;;;2.90;2.70;;;;;;;13.49;100.00;95458.38;5050301;28;20068;-42
2022/12/23 02:48:17;;;;;;;2.70;2.50;;;;;;;13.33;100.00;95466.56;5049273;28;20512;-43
2022/12/23 02:50:47;;;;;;;2.95;2.50;;;;;;;13.42;100.00;95460.13;5050707;28;20075;-49
2022/12/23 02:53:19;;;;;;;3.03;2.60;;;;;;;13.37;100.00;95449.28;5051082;28;20061;-42
2022/12/23 02:55:48;;;;;;;2.97;2.42;;;;;;;13.06;100.00;95448.47;5054031;28;20115;-44
2022/12/23 02:58:19;;;;;;;2.72;2.53;;;;;;;12.86;100.00;95457.97;5066648;28;20067;-49
2022/12/23 03:00:49;;;;;;;2.95;2.70;;;;;;;13.22;100.00;95459.88;5051302;28;20071;-47
2022/12/23 03:03:19;;;;;;;3.20;2.90;;;;;;;13.30;100.00;95459.78;5049822;28;20083;-43
2022/12/23 03:05:50;;;;;;;2.80;2.60;;;;;;;12.72;100.00;95456.16;5051631;28;20092;-49
2022/12/23 03:08:21;;;;;;;4.03;2.60;;;;;;;12.72;100.00;95470.22;5050005;28;20088;-41
2022/12/23 03:11:07;;;;;;;3.45;2.60;;;;;;;13.25;100.00;95456.91;5051030;28;20072;-44
2022/12/23 03:13:46;;;;;;;2.83;2.47;;;;;;;13.73;100.00;95460.69;5046669;28;20053;-42
2022/12/23 03:16:23;;;;;;;4.70;2.30;;;;;;;13.50;100.00;95462.66;5055580;28;20080;-42
2022/12/23 03:19:06;;;;;;;2.80;2.47;;;;;;;13.49;100.00;95459.22;5053938;28;20524;-44
2022/12/23 03:21:38;;;;;;;2.67;2.40;;;;;;;13.13;100.00;95456.50;5068058;28;20076;-41
2022/12/23 03:24:15;;;;;;;2.67;2.30;;;;;;;13.34;100.00;95453.09;5057347;28;20072;-41
2022/12/23 03:26:49;;;;;;;2.40;2.30;;;;;;;13.37;100.00;95455.38;5061641;28;20071;-49
2022/12/23 03:29:20;;;;;;;2.30;2.20;;;;;;;13.31;100.00;95458.78;5058411;28;20068;-41
2022/12/23 03:31:51;;;;;;;2.38;2.17;;;;;;;13.49;100.00;95458.38;5053006;28;20060;-40
2022/12/23 03:34:23;;;;;;;2.47;2.30;;;;;;;13.66;100.00;95457.16;5063241;28;20060;-40
2022/12/23 03:36:53;;;;;;;4.82;2.10;;;;;;;13.44;100.00;95458.94;5053961;28;20103;-43
2022/12/23 03:39:24;;;;;;;2.53;2.40;;;;;;;13.60;100.00;95467.66;5063991;28;20057;-41
2022/12/23 03:41:55;;;;;;;2.28;2.17;;;;;;;13.63;100.00;95451.41;5059777;28;20442;-45
2022/12/23 03:44:26;;;;;;;2.50;2.30;;;;;;;13.49;100.00;95456.56;5054155;28;20100;-42
2022/12/23 03:47:02;;;;;;;2.40;2.20;;;;;;;13.42;100.00;95453.03;5060469;28;20068;-43
2022/12/23 03:49:34;;;;;;;3.33;2.17;;;;;;;13.66;100.00;95464.25;5054868;28;20068;-43
2022/12/23 03:52:06;;;;;;;2.00;1.90;;;;;;;13.78;100.00;95463.56;5058376;28;20146;-48
2022/12/23 03:54:37;;;;;;;2.20;2.10;;;;;;;13.63;100.00;95462.00;5054442;28;20075;-40
2022/12/23 03:57:07;;;;;;;2.33;2.10;;;;;;;13.87;100.00;95466.94;5058390;28;20071;-42
2022/12/23 03:59:38;;;;;;;2.20;2.10;;;;;;;13.92;100.00;95472.47;5055571;28;20444;-47
2022/12/23 04:02:10;;;;;;;2.15;2.05;;;;;;;13.77;100.00;95464.59;5053333;28;20524;-41
2022/12/23 04:04:51;;;;;;;2.20;2.08;;;;;;;13.72;100.00;95461.66;5060612;28;20068;-45
2022/12/23 04:07:22;;;;;;;4.03;2.28;;;;;;;13.63;100.00;95460.16;5059566;28;20079;-44
2022/12/23 04:09:52;;;;;;;2.10;2.00;;;;;;;13.84;100.00;95466.50;5061836;28;20080;-41
2022/12/23 04:12:21;;;;;;;2.78;2.22;;;;;;;13.98;100.00;95465.59;5057090;28;20073;-44
2022/12/23 04:14:50;;;;;;;2.28;2.08;;;;;;;13.99;100.00;95475.19;5056989;28;20071;-45
2022/12/23 04:17:20;;;;;;;3.72;2.30;;;;;;;13.51;100.00;95464.31;5053743;28;20076;-44
2022/12/23 04:19:49;;;;;;;2.70;2.10;;;;;;;13.76;100.00;95472.72;5063729;28;20520;-46
2022/12/23 04:22:18;;;;;;;2.40;2.20;;;;;;;13.79;100.00;95467.03;5060654;28;20080;-48
2022/12/23 04:24:46;;;;;;;2.25;2.05;;;;;;;14.07;100.00;95474.22;5055090;28;20532;-45
2022/12/23 04:27:15;;;;;;;2.25;2.15;;;;;;;13.70;100.00;95452.28;5055886;28;20516;-44
2022/12/23 04:29:44;;;;;;;2.20;2.10;;;;;;;13.72;100.00;95468.78;5058641;28;20080;-46
2022/12/23 04:32:12;;;;;;;2.40;2.20;;;;;;;13.80;100.00;95444.00;5050655;28;20591;-44
2022/12/23 04:34:42;;;;;;;2.30;2.10;;;;;;;13.94;100.00;95481.06;5053581;28;20523;-41
2022/12/23 04:37:11;;;;;;;2.25;2.15;;;;;;;13.98;100.00;95486.81;5052162;28;20523;-43
2022/12/23 04:39:39;;;;;;;2.30;2.20;;;;;;;13.83;100.00;95488.66;5053823;28;20077;-42
2022/12/23 04:42:07;;;;;;;2.30;2.10;;;;;;;13.85;100.00;95491.97;5057263;28;20139;-55
2022/12/23 04:44:36;;;;;;;2.20;2.10;;;;;;;13.71;100.00;95485.72;5052892;28;20135;-43
2022/12/23 04:47:04;;;;;;;2.50;2.30;;;;;;;13.77;100.00;95479.66;5052817;28;20080;-42
2022/12/23 04:49:33;;;;;;;2.33;2.15;;;;;;;13.95;100.00;95488.00;5048684;28;20500;-47
2022/12/23 04:52:02;;;;;;;2.17;2.08;;;;;;;13.91;100.00;95497.34;5049080;28;20083;-51
2022/12/23 04:54:31;;;;;;;2.15;2.05;;;;;;;13.80;100.00;95495.19;5051362;28;20076;-51
2022/12/23 04:56:59;;;;;;;2.20;2.00;;;;;;;14.05;100.00;95508.06;5051857;28;20538;-44
2022/12/23 04:59:27;;;;;;;2.67;2.10;;;;;;;13.88;100.00;95503.00;5053767;28;20675;-48
2022/12/23 05:01:56;;;;;;;2.50;2.30;;;;;;;13.77;100.00;95498.22;5050718;28;20065;-45
2022/12/23 05:04:25;;;;;;;2.30;2.10;;;;;;;13.74;100.00;95504.69;5049773;28;20080;-42
2022/12/23 05:06:53;;;;;;;2.13;2.03;;;;;;;13.74;100.00;95507.34;5056117;28;20084;-45
2022/12/23 05:09:23;;;;;;;2.97;2.10;;;;;;;13.90;100.00;95518.72;5055560;28;20071;-42
2022/12/23 05:11:51;;;;;;;2.20;2.10;;;;;;;13.84;100.00;95511.53;5058672;28;20092;-43
2022/12/23 05:14:20;;;;;;;2.20;2.10;;;;;;;14.05;100.00;95510.72;5053597;28;20095;-43
2022/12/23 05:16:48;;;;;;;2.40;2.00;;;;;;;13.78;100.00;95502.50;5056862;28;20459;-46
2022/12/23 05:19:17;;;;;;;2.03;1.92;;;;;;;13.76;100.00;95515.94;5054878;28;20068;-42
2022/12/23 05:21:45;;;;;;;2.40;2.20;;;;;;;13.62;100.00;95510.66;5055793;28;20108;-42
2022/12/23 05:24:13;;;;;;;2.17;2.08;;;;;;;13.50;100.00;95508.50;5056048;28;20065;-42
2022/12/23 05:26:43;;;;;;;2.33;2.15;;;;;;;13.99;100.00;95515.75;5053297;28;20087;-43
2022/12/23 05:29:15;;;;;;;2.50;2.30;;;;;;;14.28;100.00;95519.31;5058221;28;20504;-45
2022/12/23 05:31:43;;;;;;;2.38;2.20;;;;;;;13.81;100.00;95514.56;5054543;28;20087;-43
2022/12/23 05:34:12;;;;;;;2.10;2.00;;;;;;;14.05;100.00;95519.50;5054117;28;20080;-41
2022/12/23 05:36:40;;;;;;;2.50;2.30;;;;;;;14.19;100.00;95525.75;5049451;28;20065;-43
2022/12/23 05:39:09;;;;;;;2.30;2.10;;;;;;;14.07;100.00;95537.84;5058652;28;20079;-41
2022/12/23 05:41:37;;;;;;;2.10;2.00;;;;;;;13.97;100.00;95544.28;5054209;28;20084;-52
2022/12/23 05:44:07;;;;;;;2.75;2.10;;;;;;;13.91;100.00;95550.34;5053857;28;20068;-45
2022/12/23 05:46:35;;;;;;;2.15;2.05;;;;;;;14.33;100.00;95548.72;5055114;28;20069;-42
2022/12/23 05:49:03;;;;;;;2.40;2.20;;;;;;;14.34;100.00;95547.69;5049894;28;20072;-48
2022/12/23 05:51:32;;;;;;;2.20;2.10;;;;;;;14.30;100.00;95558.88;5053794;28;20072;-51
2022/12/23 05:54:00;;;;;;;2.05;1.95;;;;;;;14.23;100.00;95543.72;5051532;28;20084;-45
2022/12/23 05:56:28;;;;;;;2.10;2.00;;;;;;;13.99;100.00;95560.00;5048768;28;20064;-42
2022/12/23 05:58:57;;;;;;;3.17;2.20;;;;;;;13.89;100.00;95562.13;5050371;28;20462;-46
2022/12/23 06:01:27;;;;;;;2.10;2.00;;;;;;;14.06;100.00;95566.19;5049170;28;20091;-47
2022/12/23 06:03:55;;;;;;;2.10;2.00;;;;;;;14.08;100.00;95560.72;5050474;28;20064;-41
2022/12/23 06:06:24;;;;;;;2.92;2.20;;;;;;;14.12;100.00;95562.78;5050656;28;20073;-41
2022/12/23 06:08:52;;;;;;;2.42;2.00;;;;;;;14.00;100.00;95566.94;5050487;28;20084;-41
2022/12/23 06:11:27;;;;;;;2.10;2.00;;;;;;;13.72;100.00;95566.81;5049803;28;20088;-45
2022/12/23 06:13:55;;;;;;;2.25;2.15;;;;;;;14.01;100.00;95576.56;5052601;28;20117;-42
2022/12/23 06:16:24;;;;;;;2.30;2.10;;;;;;;13.90;100.00;95585.81;5051158;28;20069;-41
2022/12/23 06:18:55;;;;;;;2.50;2.30;;;;;;;13.66;100.00;95584.31;5055973;28;20076;-41
2022/12/23 06:21:25;;;;;;;2.55;2.35;;;;;;;13.59;100.00;95579.91;5050046;28;20080;-41
2022/12/23 06:23:53;;;;;;;2.63;2.40;;;;;;;13.69;100.00;95591.84;5052546;28;20084;-46
2022/12/23 06:26:22;;;;;;;2.38;2.17;;;;;;;13.74;100.00;95599.28;5052579;28;20087;-42
2022/12/23 06:28:50;;;;;;;2.40;2.30;;;;;;;13.87;100.00;95607.38;5049786;28;20085;-42
2022/12/23 06:31:18;;;;;;;2.75;2.20;;;;;;;13.84;100.00;95609.59;5050031;28;20091;-43
2022/12/23 06:33:46;;;;;;;2.97;2.30;;;;;;;13.95;100.00;95607.25;5049383;28;20107;-42
2022/12/23 06:36:16;;;;;;;2.47;2.35;;;;;;;13.81;100.00;95615.25;5051695;28;20083;-40
2022/12/23 06:38:44;;;;;;;2.60;2.40;;;;;;;13.92;100.00;95623.53;5050995;28;20262;-46
2022/12/23 06:41:13;;;;;;;2.40;2.30;;;;;;;13.94;100.00;95626.84;5053554;28;20467;-41
2022/12/23 06:43:41;;;;;;;2.42;2.22;;;;;;;13.86;100.00;95621.63;5054756;28;20087;-46
2022/12/23 06:46:11;;;;;;;2.40;2.20;;;;;;;13.97;100.00;95628.25;5050687;28;20719;-48
2022/12/23 06:48:39;;;;;;;4.35;2.60;;;;;;;14.38;100.00;95638.31;5050445;28;20547;-41
2022/12/23 06:51:09;;;;;;;2.50;2.40;;;;;;;14.29;100.00;95634.97;5057762;28;20088;-48
2022/12/23 06:53:39;;;;;;;2.25;2.10;;;;;;;14.20;100.00;95636.91;5057555;28;20221;-45
2022/12/23 06:56:07;;;;;;;2.50;2.30;;;;;;;14.07;100.00;95643.88;5052684;28;20088;-43
2022/12/23 06:58:36;;;;;;;2.20;2.10;;;;;;;14.38;100.00;95640.97;5055683;28;20079;-51
2022/12/23 07:01:05;;;;;;;2.45;2.25;;;;;;;14.09;100.00;95639.22;5053666;28;20141;-46
2022/12/23 07:03:33;;;;;;;2.20;2.10;;;;;;;14.29;100.00;95645.56;5060297;28;20080;-46
2022/12/23 07:06:02;;;;;;;2.10;2.00;;;;;;;14.31;100.00;95646.19;5056712;28;20084;-43
2022/12/23 07:08:30;;;;;;;2.10;2.00;;;;;;;14.22;100.00;95642.84;5054339;28;20095;-41
2022/12/23 07:11:00;;;;;;;2.17;2.08;;;;;;;14.42;100.00;95650.22;5056399;28;20076;-42
2022/12/23 07:13:29;;;;;;;2.50;2.30;;;;;;;14.57;100.00;95642.22;5054797;28;20095;-44
2022/12/23 07:15:57;;;;;;;2.55;2.35;;;;;;;14.36;100.00;95646.47;5054035;28;20092;-43
2022/12/23 07:18:26;;;;;;;2.55;2.42;;;;;;;14.18;100.00;95656.69;5056812;28;20083;-50
2022/12/23 07:20:54;;;;;;;2.55;2.20;;;;;;;14.42;100.00;95651.03;5056663;28;20159;-44
2022/12/23 07:23:22;;;;;;;2.10;2.00;;;;;;;14.14;100.00;95652.72;5053455;28;20089;-47
2022/12/23 07:25:50;;;;;;;2.20;2.10;;;;;;;14.11;100.00;95651.31;5051828;28;20076;-48
2022/12/23 07:28:20;;;;;;;2.40;2.30;;;;;;;14.29;100.00;95658.03;5055689;28;20465;-41
2022/12/23 07:30:48;;;;;;;2.35;2.15;;;;;;;14.24;100.00;95658.56;5056841;28;20100;-46
2022/12/23 07:33:17;;;;;;;3.38;2.28;;;;;;;14.34;100.00;95660.91;5057005;28;20083;-43
2022/12/23 07:35:45;;;;;;;2.40;2.20;;;;;;;14.12;100.00;95660.88;5055694;28;20099;-44
2022/12/23 07:38:13;;;;;;;2.88;2.67;;;;;;;14.26;100.00;95659.22;5055745;28;20107;-45
2022/12/23 07:40:41;;;;;;;2.75;2.50;;;;;;;14.08;100.00;95664.09;5053447;28;20083;-42
2022/12/23 07:43:10;;;;;;;2.60;2.40;;;;;;;14.07;100.00;95667.75;5052192;28;20088;-46
2022/12/23 07:45:39;;;;;;;3.10;2.30;;;;;;;14.26;100.00;95667.16;5057094;28;20091;-45
2022/12/23 07:48:08;;;;;;;2.50;2.30;;;;;;;14.44;100.00;95672.03;5054442;28;20125;-44
2022/12/23 07:50:36;;;;;;;3.47;2.28;;;;;;;14.27;100.00;95667.97;5058549;28;20084;-44
2022/12/23 07:53:05;;;;;;;2.60;2.40;;;;;;;14.47;100.00;95674.31;5054117;28;20085;-42
2022/12/23 07:55:33;;;;;;;3.00;2.40;;;;;;;14.27;100.00;95684.72;5051299;28;20359;-40
2022/12/23 07:58:01;;;;;;;2.60;2.40;;;;;;;14.64;100.00;95670.44;5055347;28;20080;-46
2022/12/23 08:00:30;;;;;;;3.72;2.40;;;;;;;14.82;100.00;95671.84;5053630;28;20080;-47
2022/12/23 08:02:59;;;;;;;2.80;2.40;;;;;;;14.66;100.00;95672.94;5052353;28;20175;-47
2022/12/23 08:05:28;;;;;;;2.47;2.28;;;;;;;14.65;100.00;95680.03;5056954;28;20080;-48
2022/12/23 08:07:56;;;;;;;4.75;2.47;;;;;;;14.77;100.00;95675.06;5052339;28;20458;-46
2022/12/23 08:10:24;;;;;;;2.42;2.22;;;;;;;14.95;100.00;95686.06;5055670;28;20085;-51
2022/12/23 08:12:53;;;;;;;2.30;2.10;;;;;;;14.83;100.00;95682.28;5052790;28;20084;-43
2022/12/23 08:15:21;;;;;;;2.50;2.30;;;;;;;15.24;100.00;95691.38;5056927;28;20071;-47
2022/12/23 08:17:50;;;;;;;2.50;2.30;;;;;;;15.07;100.00;95689.03;5054222;28;20305;-50
2022/12/23 08:20:20;;;;;;;2.72;2.50;;;;;;;15.12;100.00;95696.41;5053488;28;20077;-49
2022/12/23 08:22:48;;;;;;;6.47;2.67;;;;;;;15.78;100.00;95696.91;5051658;28;20080;-44
2022/12/23 08:25:17;;;;;;;3.25;2.40;;;;;;;15.42;100.00;95689.09;5056177;28;20476;-47
2022/12/23 08:27:45;;;;;;;2.42;2.22;;;;;;;15.54;100.00;95692.03;5055381;28;20646;-44
2022/12/23 08:30:14;;;;;;;4.40;2.20;;;;;;;15.50;100.00;95688.13;5053041;28;20523;-43
2022/12/23 08:32:42;;;;;;;2.63;2.17;;;;;;;15.15;100.00;95693.38;5054368;28;20111;-46
2022/12/23 08:35:10;;;;;;;3.65;2.10;;;;;;;15.65;100.00;95686.97;5054048;28;20088;-42
2022/12/23 08:37:40;;;;;;;2.72;2.30;;;;;;;15.58;100.00;95691.44;5051440;28;20445;-42
2022/12/23 08:40:09;;;;;;;2.97;2.30;;;;;;;15.37;100.00;95680.88;5053954;28;20147;-40
2022/12/23 08:42:38;;;;;;;2.20;2.00;;;;;;;15.27;100.00;95681.19;5053325;28;20506;-46
2022/12/23 08:45:07;;;;;;;2.47;2.00;;;;;;;15.02;100.00;95680.81;5051102;28;20065;-50
2022/12/23 08:47:35;;;;;;;3.22;1.90;;;;;;;15.06;100.00;95684.72;5053482;28;20448;-43
2022/12/23 08:50:04;;;;;;;1.83;1.73;;;;;;;15.09;100.00;95688.81;5056365;28;20075;-42
2022/12/23 08:52:32;;;;;;;1.80;1.70;;;;;;;15.04;100.00;95680.63;5053754;28;20061;-45
2022/12/23 08:55:02;;;;;;;1.98;1.88;;;;;;;15.13;100.00;95687.41;5051741;28;20100;-42
2022/12/23 08:57:30;;;;;;;2.10;2.00;;;;;;;15.29;100.00;95695.13;5053278;28;20073;-45
2022/12/23 08:59:59;;;;;;;2.03;1.92;;;;;;;15.59;100.00;95686.97;5054267;28;20599;-43
2022/12/23 09:02:27;;;;;;;2.03;1.92;;;;;;;15.73;100.00;95686.06;5052446;28;20092;-49
2022/12/23 09:04:55;;;;;;;1.90;1.80;;;;;;;15.96;100.00;95699.03;5052980;28;20448;-44
2022/12/23 09:07:24;;;;;;;1.92;1.83;;;;;;;15.67;100.00;95708.09;5050970;28;20084;-41
2022/12/23 09:09:52;;;;;;;2.20;2.00;;;;;;;15.87;100.00;95717.00;5054656;28;20485;-45
2022/12/23 09:12:22;;;;;;;2.20;1.95;;;;;;;15.64;100.00;95716.41;5054340;28;20085;-42
2022/12/23 09:14:50;;;;;;;2.22;2.03;;;;;;;15.61;100.00;95716.81;5054812;28;20084;-41
2022/12/23 09:17:18;;;;;;;2.08;1.90;;;;;;;15.86;100.00;95722.50;5052308;28;20076;-44
2022/12/23 09:19:47;;;;;;;1.83;1.73;;;;;;;15.57;100.00;95721.69;5052839;28;20084;-41
2022/12/23 09:22:20;;;;;;;2.10;1.80;;;;;;;15.57;100.00;95718.22;5055267;28;20076;-47
2022/12/23 09:24:48;;;;;;;2.10;1.88;;;;;;;15.90;100.00;95708.66;5053856;28;20092;-44
2022/12/23 09:27:16;;;;;;;1.98;1.73;;;;;;;15.81;100.00;95712.47;5055305;28;20080;-44
2022/12/23 09:29:46;;;;;;;1.80;1.70;;;;;;;15.99;100.00;95703.97;5053859;28;20107;-46
2022/12/23 09:32:14;;;;;;;1.98;1.88;;;;;;;16.02;100.00;95698.25;5051599;28;20091;-45
2022/12/23 09:34:43;;;;;;;1.77;1.67;;;;;;;15.60;100.00;95693.91;5057683;28;20091;-45
2022/12/23 09:37:12;;;;;;;1.98;1.88;;;;;;;15.73;100.00;95694.03;5055482;28;20092;-42
2022/12/23 09:39:40;;;;;;;2.55;1.60;;;;;;;16.24;100.00;95699.00;5051546;28;20094;-45
2022/12/23 09:42:25;;;;;;;1.90;1.80;;;;;;;16.01;100.00;95693.97;5052908;28;20073;-45
2022/12/23 09:45:12;;;;;;;1.70;1.60;;;;;;;16.43;100.00;95699.25;5049340;28;20068;-43
2022/12/23 09:47:41;;;;;;;1.70;1.60;;;;;;;16.37;100.00;95700.84;5053069;28;20079;-42
2022/12/23 09:50:19;;;;;;;1.95;1.60;;;;;;;16.16;100.00;95709.78;5054908;28;20080;-44
2022/12/23 09:52:52;;;;;;;1.83;1.70;;;;;;;15.94;100.00;95709.06;5053482;28;20463;-44
2022/12/23 09:55:22;;;;;;;2.03;1.75;;;;;;;16.30;100.00;95700.84;5052567;28;20079;-41
2022/12/23 09:57:55;;;;;;;1.70;1.60;;;;;;;16.59;100.00;95683.75;5054024;28;20111;-45
2022/12/23 10:00:25;;;;;;;1.80;1.70;;;;;;;16.31;100.00;95691.84;5053076;28;20076;-47
2022/12/23 10:03:17;;;;;;;1.88;1.70;;;;;;;16.61;100.00;95691.53;5053110;28;20065;-47
2022/12/23 10:05:55;;;;;;;2.25;1.60;;;;;;;16.97;100.00;95677.09;5046537;28;20072;-49
2022/12/23 10:08:28;;;;;;;1.70;1.60;;;;;;;17.26;100.00;95679.34;5052579;28;20539;-44
2022/12/23 10:10:59;;;;;;;1.60;1.50;;;;;;;16.77;100.00;95679.72;5051486;28;20080;-43
2022/12/23 10:13:28;;;;;;;;;;;;;;;16.60;100.00;95688.03;5055141;28;20088;-45
2022/12/23 10:16:02;;;;;;;3.33;3.00;;;;;;;17.02;100.00;95683.41;5055891;28;20367;-46
2022/12/23 10:18:40;;;;;;;2.45;2.25;;;;;;;16.74;100.00;95678.28;5056605;28;20083;-43
2022/12/23 10:21:13;;;;;;;3.13;2.83;;;;;;;17.01;100.00;95678.31;5048106;28;20536;-49
2022/12/23 10:23:44;;;;;;;2.85;2.40;;;;;;;16.66;100.00;95678.44;5053581;28;20076;-40
2022/12/23 10:26:16;;;;;;;5.07;4.57;;;;;;;17.14;100.00;95686.31;5053980;28;20096;-53
2022/12/23 10:28:44;;;;;;;4.22;2.88;;;;;;;17.15;100.00;95679.97;5053662;28;20080;-44
2022/12/23 10:31:17;;;;;;;4.03;3.63;;;;;;;17.00;100.00;95671.34;5051859;28;20155;-48
2022/12/23 10:34:12;;;;;;;1.70;1.60;;;;;;;16.67;100.00;95677.41;5049976;28;20075;-54
2022/12/23 10:36:48;;;;;;;1.52;1.42;;;;;;;17.28;100.00;95669.31;5054658;28;20087;-44
2022/12/23 10:39:24;;;;;;;1.88;1.55;;;;;;;17.54;100.00;95662.28;5050796;28;20792;-40
2022/12/23 10:42:02;;;;;;;1.50;1.40;;;;;;;17.46;100.00;95673.19;5049813;28;20949;-49
2022/12/23 10:44:58;;;;;;;1.75;1.60;;;;;;;17.65;100.00;95667.00;5054460;28;20080;-40
2022/12/23 10:47:36;;;;;;;1.70;1.60;;;;;;;17.43;100.00;95669.06;5055045;28;20088;-44
2022/12/23 10:50:16;;;;;;;1.65;1.55;;;;;;;16.90;100.00;95665.63;5048528;28;20524;-46
2022/12/23 10:52:45;;;;;;;1.80;1.70;;;;;;;17.31;100.00;95660.09;5051337;28;20087;-42
2022/12/23 10:55:21;;;;;;;1.60;1.50;;;;;;;17.60;100.00;95658.78;5048781;28;20091;-48
2022/12/23 10:57:49;;;;;;;4.47;3.70;;;;;;;17.90;100.00;95661.03;5054470;28;20092;-41
2022/12/23 11:00:30;;;;;;;13.80;9.77;;;;;;;17.33;100.00;95655.34;5053920;28;22271;-49
2022/12/23 11:03:08;;;;;;;6.80;4.88;;;;;;;16.99;100.00;95653.72;5049994;28;20491;-42
2022/12/23 11:05:36;;;;;;;10.82;7.75;;;;;;;17.10;100.00;95653.09;5053365;28;20091;-41
2022/12/23 11:08:05;;;;;;;10.82;6.82;;;;;;;17.89;100.00;95657.50;5050323;28;20095;-43
2022/12/23 11:10:34;;;;;;;2.35;2.10;;;;;;;17.07;100.00;95657.00;5057897;28;20076;-44
2022/12/23 11:13:02;;;;;;;2.47;2.28;;;;;;;16.97;100.00;95639.81;5049391;28;20084;-40
2022/12/23 11:15:33;;;;;;;3.45;2.58;;;;;;;17.13;100.00;95658.00;5055590;28;20080;-47
2022/12/23 11:18:05;;;;;;;1.90;1.80;;;;;;;16.91;100.00;95657.41;5055046;28;20433;-46
2022/12/23 11:20:36;;;;;;;3.75;1.80;;;;;;;16.33;100.00;95657.88;5051274;28;20079;-43
2022/12/23 11:23:06;;;;;;;2.30;2.10;;;;;;;16.89;100.00;95653.28;5052251;28;20079;-46
2022/12/23 11:25:37;;;;;;;1.80;1.70;;;;;;;16.72;100.00;95650.16;5048219;28;20080;-43
2022/12/23 11:28:07;;;;;;;1.70;1.60;;;;;;;16.76;100.00;95652.28;5055200;28;20563;-47
2022/12/23 11:30:38;;;;;;;1.85;1.75;;;;;;;16.76;100.00;95644.28;5049933;28;20095;-45
2022/12/23 11:33:18;;;;;;;2.13;2.00;;;;;;;16.69;100.00;95647.91;5054358;28;20076;-43
2022/12/23 11:35:47;;;;;;;1.80;1.70;;;;;;;16.80;100.00;95650.84;5055209;28;20091;-40
2022/12/23 11:38:15;;;;;;;2.63;1.80;;;;;;;16.54;100.00;95637.44;5056317;28;20076;-43
2022/12/23 11:40:46;;;;;;;1.90;1.80;;;;;;;16.38;100.00;95650.13;5055031;28;20069;-46
2022/12/23 11:43:16;;;;;;;2.08;1.90;;;;;;;16.03;100.00;95667.16;5056125;28;20080;-41
2022/12/23 11:45:44;;;;;;;2.47;1.80;;;;;;;16.21;100.00;95656.81;5057449;28;20080;-48
2022/12/23 11:48:29;;;;;;;1.80;1.70;;;;;;;16.29;100.00;95650.50;5056568;28;20552;-46
2022/12/23 11:51:01;;;;;;;1.90;1.80;;;;;;;16.17;100.00;95644.09;5051631;28;20088;-41
2022/12/23 11:53:30;;;;;;;2.05;1.80;;;;;;;16.45;100.00;95638.66;5059065;28;20068;-40
2022/12/23 11:56:00;;;;;;;2.05;1.90;;;;;;;16.52;100.00;95635.00;5051918;28;20085;-48
2022/12/23 11:58:30;;;;;;;2.35;1.80;;;;;;;16.72;100.00;95626.22;5055856;28;20111;-45
2022/12/23 12:01:00;;;;;;;2.10;1.90;;;;;;;16.77;100.00;95623.81;5054097;28;20085;-46
2022/12/23 12:03:32;;;;;;;1.90;1.80;;;;;;;16.74;100.00;95622.34;5052557;28;20495;-42
2022/12/23 12:06:02;;;;;;;2.40;1.90;;;;;;;17.40;100.00;95618.84;5056898;28;20077;-51
2022/12/23 12:08:32;;;;;;;1.90;1.80;;;;;;;17.25;100.00;95621.75;5054982;28;20088;-50
2022/12/23 12:11:04;;;;;;;2.00;1.90;;;;;;;17.09;100.00;95616.84;5054718;28;20095;-44